sensor_id;sensor_type;location;lat;lon;timestamp;pressure;altitude;pressure_sealevel;temperature;humidity
44144;BME280;68165;51.920;4.492;2023-04-02T00:08:01;66998.50;;;10.30;100.00
44144;BME280;68165;51.920;4.492;2023-04-02T00:15:24;67005.94;;;10.32;100.00
44144;BME280;68165;51.920;4.492;2023-04-02T00:17:50;67004.06;;;10.35;100.00
44144;BME280;68165;51.920;4.492;2023-04-02T00:20:15;67006.31;;;10.37;100.00
44144;BME280;68165;51.920;4.492;2023-04-02T00:22:43;67012.44;;;10.42;100.00
44144;BME280;68165;51.920;4.492;2023-04-02T00:32:54;67001.50;;;10.28;100.00
44144;BME280;68165;51.920;4.492;2023-04-02T00:35:24;66995.13;;;10.27;100.00
44144;BME280;68165;51.920;4.492;2023-04-02T00:37:51;66988.84;;;10.18;100.00
44144;BME280;68165;51.920;4.492;2023-04-02T00:40:21;66990.50;;;10.20;100.00
44144;BME280;68165;51.920;4.492;2023-04-02T00:42:48;66989.56;;;10.21;100.00
44144;BME280;68165;51.920;4.492;2023-04-02T00:45:35;66990.69;;;10.22;100.00
44144;BME280;68165;51.920;4.492;2023-04-02T00:47:59;66995.13;;;10.27;100.00
44144;BME280;68165;51.920;4.492;2023-04-02T00:50:40;66999.06;;;10.30;100.00
44144;BME280;68165;51.920;4.492;2023-04-02T00:53:09;66999.63;;;10.31;100.00
44144;BME280;68165;51.920;4.492;2023-04-02T00:55:37;66999.63;;;10.31;100.00
44144;BME280;68165;51.920;4.492;2023-04-02T00:58:04;66999.63;;;10.31;100.00
44144;BME280;68165;51.920;4.492;2023-04-02T01:00:37;66997.38;;;10.29;100.00
44144;BME280;68165;51.920;4.492;2023-04-02T01:03:36;66990.13;;;10.22;100.00
44144;BME280;68165;51.920;4.492;2023-04-02T01:05:59;66992.19;;;10.21;100.00
44144;BME280;68165;51.920;4.492;2023-04-02T01:11:03;66986.03;;;10.16;100.00
44144;BME280;68165;51.920;4.492;2023-04-02T01:13:38;66980.63;;;10.13;100.00
44144;BME280;68165;51.920;4.492;2023-04-02T01:18:41;66984.91;;;10.15;100.00
44144;BME280;68165;51.920;4.492;2023-04-02T01:21:13;66985.66;;;10.18;100.00
44144;BME280;68165;51.920;4.492;2023-04-02T01:24:02;66974.09;;;10.10;100.00
44144;BME280;68165;51.920;4.492;2023-04-02T01:31:19;66962.97;;;10.00;100.00
44144;BME280;68165;51.920;4.492;2023-04-02T01:33:45;66967.22;;;10.01;100.00
44144;BME280;68165;51.920;4.492;2023-04-02T01:36:48;66967.22;;;10.01;100.00
44144;BME280;68165;51.920;4.492;2023-04-02T01:39:14;66963.72;;;9.96;100.00
44144;BME280;68165;51.920;4.492;2023-04-02T01:44:34;66945.09;;;9.83;100.00
44144;BME280;68165;51.920;4.492;2023-04-02T01:47:02;66950.53;;;9.86;100.00
44144;BME280;68165;51.920;4.492;2023-04-02T01:49:29;66950.53;;;9.86;100.00
44144;BME280;68165;51.920;4.492;2023-04-02T01:51:55;66948.28;;;9.84;100.00
44144;BME280;68165;51.920;4.492;2023-04-02T01:54:21;66950.91;;;9.84;100.00
44144;BME280;68165;51.920;4.492;2023-04-02T01:56:47;66956.88;;;9.87;100.00
44144;BME280;68165;51.920;4.492;2023-04-02T01:59:13;66954.97;;;9.90;100.00
44144;BME280;68165;51.920;4.492;2023-04-02T02:04:11;66957.22;;;9.92;100.00
44144;BME280;68165;51.920;4.492;2023-04-02T02:06:37;66962.78;;;9.97;100.00
44144;BME280;68165;51.920;4.492;2023-04-02T02:09:04;66968.19;;;10.00;100.00
44144;BME280;68165;51.920;4.492;2023-04-02T02:11:30;66968.19;;;10.00;100.00
44144;BME280;68165;51.920;4.492;2023-04-02T02:13:59;66965.97;;;9.98;100.00
44144;BME280;68165;51.920;4.492;2023-04-02T02:16:26;66965.03;;;9.99;100.00
44144;BME280;68165;51.920;4.492;2023-04-02T02:18:56;66962.78;;;9.97;100.00
44144;BME280;68165;51.920;4.492;2023-04-02T02:21:34;66958.88;;;9.94;100.00
44144;BME280;68165;51.920;4.492;2023-04-02T02:24:02;66952.75;;;9.88;100.00
44144;BME280;68165;51.920;4.492;2023-04-02T02:26:28;66950.34;;;9.83;100.00
44144;BME280;68165;51.920;4.492;2023-04-02T02:28:58;66939.38;;;9.76;100.00
44144;BME280;68165;51.920;4.492;2023-04-02T02:31:33;66935.31;;;9.70;100.00
44144;BME280;68165;51.920;4.492;2023-04-02T02:34:01;66930.47;;;9.68;100.00
44144;BME280;68165;51.920;4.492;2023-04-02T02:39:06;66928.63;;;9.64;100.00
44144;BME280;68165;51.920;4.492;2023-04-02T02:41:41;66927.13;;;9.65;100.00
44144;BME280;68165;51.920;4.492;2023-04-02T02:46:34;66931.00;;;9.68;100.00
44144;BME280;68165;51.920;4.492;2023-04-02T02:49:02;66924.31;;;9.62;100.00
44144;BME280;68165;51.920;4.492;2023-04-02T02:51:49;66915.97;;;9.55;100.00
44144;BME280;68165;51.920;4.492;2023-04-02T02:54:16;66918.19;;;9.57;100.00
44144;BME280;68165;51.920;4.492;2023-04-02T02:56:45;66916.69;;;9.58;100.00
44144;BME280;68165;51.920;4.492;2023-04-02T02:59:11;66919.69;;;9.56;100.00
44144;BME280;68165;51.920;4.492;2023-04-02T03:01:38;66920.63;;;9.54;100.00
44144;BME280;68165;51.920;4.492;2023-04-02T03:04:04;66913.19;;;9.52;100.00
44144;BME280;68165;51.920;4.492;2023-04-02T03:29:52;66869.72;;;9.13;100.00
44144;BME280;68165;51.920;4.492;2023-04-02T03:32:19;66866.94;;;9.10;100.00
44144;BME280;68165;51.920;4.492;2023-04-02T03:47:53;66826.50;;;8.69;100.00
44144;BME280;68165;51.920;4.492;2023-04-02T03:50:22;66823.88;;;8.69;100.00
44144;BME280;68165;51.920;4.492;2023-04-02T03:52:50;66825.53;;;8.70;100.00
44144;BME280;68165;51.920;4.492;2023-04-02T03:55:20;66817.91;;;8.66;100.00
44144;BME280;68165;51.920;4.492;2023-04-02T03:57:54;66823.31;;;8.68;100.00
44144;BME280;68165;51.920;4.492;2023-04-02T04:03:24;66827.22;;;8.72;100.00
44144;BME280;68165;51.920;4.492;2023-04-02T04:05:58;66826.09;;;8.71;100.00
44144;BME280;68165;51.920;4.492;2023-04-02T04:08:30;66822.75;;;8.68;100.00
44144;BME280;68165;51.920;4.492;2023-04-02T04:11:02;66820.38;;;8.63;100.00
44144;BME280;68165;51.920;4.492;2023-04-02T04:34:13;66811.25;;;8.59;100.00
44144;BME280;68165;51.920;4.492;2023-04-02T04:36:49;66805.50;;;8.52;100.00
44144;BME280;68165;51.920;4.492;2023-04-02T04:39:41;66814.25;;;8.57;100.00
44144;BME280;68165;51.920;4.492;2023-04-02T04:42:17;66809.56;;;8.58;100.00
44144;BME280;68165;51.920;4.492;2023-04-02T04:47:33;66816.63;;;8.62;100.00
44144;BME280;68165;51.920;4.492;2023-04-02T04:53:11;66810.13;;;8.58;100.00
44144;BME280;68165;51.920;4.492;2023-04-02T04:55:42;66811.06;;;8.57;100.00
44144;BME280;68165;51.920;4.492;2023-04-02T05:03:34;66819.59;;;8.67;100.00
44144;BME280;68165;51.920;4.492;2023-04-02T05:06:08;66817.56;;;8.60;100.00
44144;BME280;68165;51.920;4.492;2023-04-02T05:34:32;66738.13;;;7.91;100.00
44144;BME280;68165;51.920;4.492;2023-04-02T05:36:58;66736.63;;;7.92;99.89
44144;BME280;68165;51.920;4.492;2023-04-02T05:39:25;66739.44;;;7.87;99.99
44144;BME280;68165;51.920;4.492;2023-04-02T05:42:06;66745.94;;;7.98;100.00
44144;BME280;68165;51.920;4.492;2023-04-02T05:44:53;66743.31;;;7.98;100.00
44144;BME280;68165;51.920;4.492;2023-04-02T05:47:26;66742.56;;;7.95;100.00
44144;BME280;68165;51.920;4.492;2023-04-02T05:50:20;66754.09;;;8.03;99.89
44144;BME280;68165;51.920;4.492;2023-04-02T05:53:36;66755.00;;;8.08;99.59
44144;BME280;68165;51.920;4.492;2023-04-02T05:56:20;66752.22;;;8.06;99.01
44144;BME280;68165;51.920;4.492;2023-04-02T05:58:59;66736.63;;;7.92;98.39
44144;BME280;68165;51.920;4.492;2023-04-02T06:07:22;66715.31;;;7.70;99.95
44144;BME280;68165;51.920;4.492;2023-04-02T06:09:56;66730.91;;;7.84;99.51
44144;BME280;68165;51.920;4.492;2023-04-02T06:15:04;66738.13;;;7.91;97.87
44144;BME280;68165;51.920;4.492;2023-04-02T06:17:33;66738.84;;;7.94;97.21
44144;BME280;68165;51.920;4.492;2023-04-02T06:20:12;66741.47;;;7.94;96.89
44144;BME280;68165;51.920;4.492;2023-04-02T06:22:42;66741.66;;;7.96;96.77
44144;BME280;68165;51.920;4.492;2023-04-02T06:25:12;66743.88;;;7.98;95.67
44144;BME280;68165;51.920;4.492;2023-04-02T06:27:40;66747.03;;;7.99;95.75
44144;BME280;68165;51.920;4.492;2023-04-02T06:30:15;66744.97;;;7.99;96.44
44144;BME280;68165;51.920;4.492;2023-04-02T06:32:41;66747.75;;;8.02;95.67
44144;BME280;68165;51.920;4.492;2023-04-02T06:35:12;66741.28;;;7.98;95.18
44144;BME280;68165;51.920;4.492;2023-04-02T06:37:39;66747.75;;;8.02;94.32
44144;BME280;68165;51.920;4.492;2023-04-02T06:40:31;66739.97;;;7.95;93.42
44144;BME280;68165;51.920;4.492;2023-04-02T06:43:06;66743.88;;;7.98;93.24
44144;BME280;68165;51.920;4.492;2023-04-02T06:45:39;66757.06;;;8.08;93.39
44144;BME280;68165;51.920;4.492;2023-04-02T06:48:14;66760.78;;;8.09;91.38
44144;BME280;68165;51.920;4.492;2023-04-02T06:50:51;66753.31;;;8.07;89.96
44144;BME280;68165;51.920;4.492;2023-04-02T06:55:52;66750.00;;;8.04;89.66
44144;BME280;68165;51.920;4.492;2023-04-02T06:58:19;66751.88;;;8.01;88.23
44144;BME280;68165;51.920;4.492;2023-04-02T07:00:46;66753.16;;;8.04;89.38
44144;BME280;68165;51.920;4.492;2023-04-02T07:03:15;66748.88;;;8.03;88.64
44144;BME280;68165;51.920;4.492;2023-04-02T07:05:43;66756.50;;;8.07;88.42
44144;BME280;68165;51.920;4.492;2023-04-02T07:08:09;66765.22;;;8.13;86.93
44144;BME280;68165;51.920;4.492;2023-04-02T07:10:35;66754.66;;;8.03;86.82
44144;BME280;68165;51.920;4.492;2023-04-02T07:13:01;66749.25;;;8.01;85.65
44144;BME280;68165;51.920;4.492;2023-04-02T07:15:27;66746.50;;;7.98;85.42
44144;BME280;68165;51.920;4.492;2023-04-02T07:17:53;66739.41;;;7.94;85.70
44144;BME280;68165;51.920;4.492;2023-04-02T07:20:28;66734.78;;;7.88;86.74
44144;BME280;68165;51.920;4.492;2023-04-02T07:22:54;66732.00;;;7.85;86.17
44144;BME280;68165;51.920;4.492;2023-04-02T07:25:21;66742.19;;;7.97;86.59
44144;BME280;68165;51.920;4.492;2023-04-02T07:27:47;66745.53;;;8.00;85.78
44144;BME280;68165;51.920;4.492;2023-04-02T07:30:12;66739.25;;;7.92;85.17
44144;BME280;68165;51.920;4.492;2023-04-02T07:32:38;66734.22;;;7.87;85.01
44144;BME280;68165;51.920;4.492;2023-04-02T07:35:04;66730.69;;;7.89;85.57
44144;BME280;68165;51.920;4.492;2023-04-02T07:37:30;66731.63;;;7.87;84.61
44144;BME280;68165;51.920;4.492;2023-04-02T07:39:56;66730.53;;;7.86;84.18
44144;BME280;68165;51.920;4.492;2023-04-02T07:42:21;66737.00;;;7.90;84.48
44144;BME280;68165;51.920;4.492;2023-04-02T07:44:47;66742.19;;;7.97;83.98
44144;BME280;68165;51.920;4.492;2023-04-02T07:47:12;66724.38;;;7.80;83.71
44144;BME280;68165;51.920;4.492;2023-04-02T07:49:38;66711.03;;;7.68;83.14
44144;BME280;68165;51.920;4.492;2023-04-02T07:52:03;66712.91;;;7.65;84.06
44144;BME280;68165;51.920;4.492;2023-04-02T07:54:28;66717.72;;;7.74;84.28
44144;BME280;68165;51.920;4.492;2023-04-02T07:56:54;66728.50;;;7.79;83.88
44144;BME280;68165;51.920;4.492;2023-04-02T07:59:20;66723.28;;;7.79;83.35
44144;BME280;68165;51.920;4.492;2023-04-02T08:01:45;66706.97;;;7.62;83.77
44144;BME280;68165;51.920;4.492;2023-04-02T08:04:20;66708.81;;;7.66;84.40
44144;BME280;68165;51.920;4.492;2023-04-02T08:06:46;66715.88;;;7.70;84.98
44144;BME280;68165;51.920;4.492;2023-04-02T08:09:13;66733.66;;;7.87;85.31
44144;BME280;68165;51.920;4.492;2023-04-02T08:11:39;66743.69;;;7.96;85.36
44144;BME280;68165;51.920;4.492;2023-04-02T08:14:09;66755.94;;;8.07;84.35
44144;BME280;68165;51.920;4.492;2023-04-02T08:19:10;66763.88;;;8.16;83.62
44144;BME280;68165;51.920;4.492;2023-04-02T08:21:35;66759.28;;;8.10;83.40
44144;BME280;68165;51.920;4.492;2023-04-02T08:24:01;66763.56;;;8.11;83.53
44144;BME280;68165;51.920;4.492;2023-04-02T08:26:27;66766.13;;;8.18;83.97
44144;BME280;68165;51.920;4.492;2023-04-02T08:28:53;66780.06;;;8.31;83.87
44144;BME280;68165;51.920;4.492;2023-04-02T08:31:18;66805.50;;;8.52;84.20
44144;BME280;68165;51.920;4.492;2023-04-02T08:33:44;66819.03;;;8.67;83.45
44144;BME280;68165;51.920;4.492;2023-04-02T08:36:16;66827.41;;;8.74;83.19
44144;BME280;68165;51.920;4.492;2023-04-02T08:38:42;66834.63;;;8.81;83.24
44144;BME280;68165;51.920;4.492;2023-04-02T08:41:19;66853.00;;;8.97;82.89
44144;BME280;68165;51.920;4.492;2023-04-02T08:44:06;66853.56;;;8.98;81.65
44144;BME280;68165;51.920;4.492;2023-04-02T08:46:43;66840.59;;;8.84;81.55
44144;BME280;68165;51.920;4.492;2023-04-02T08:49:48;66832.97;;;8.79;82.39
44144;BME280;68165;51.920;4.492;2023-04-02T08:52:26;66839.88;;;8.81;82.20
44144;BME280;68165;51.920;4.492;2023-04-02T08:54:53;66830.38;;;8.72;81.33
44144;BME280;68165;51.920;4.492;2023-04-02T08:57:46;66809.03;;;8.57;81.73
44144;BME280;68165;51.920;4.492;2023-04-02T09:00:26;66813.47;;;8.62;82.66
44144;BME280;68165;51.920;4.492;2023-04-02T09:02:57;66820.94;;;8.64;82.50
44144;BME280;68165;51.920;4.492;2023-04-02T09:05:29;66790.25;;;8.43;81.20
44144;BME280;68165;51.920;4.492;2023-04-02T09:07:58;66786.94;;;8.40;82.25
44144;BME280;68165;51.920;4.492;2023-04-02T09:10:36;66792.88;;;8.43;82.03
44144;BME280;68165;51.920;4.492;2023-04-02T09:13:08;66800.47;;;8.47;81.55
44144;BME280;68165;51.920;4.492;2023-04-02T09:15:40;66794.91;;;8.42;81.15
44144;BME280;68165;51.920;4.492;2023-04-02T09:18:13;66808.47;;;8.57;81.72
44144;BME280;68165;51.920;4.492;2023-04-02T09:20:39;66808.84;;;8.55;80.90
44144;BME280;68165;51.920;4.492;2023-04-02T09:23:04;66815.16;;;8.63;80.63
44144;BME280;68165;51.920;4.492;2023-04-02T09:25:31;66823.88;;;8.69;79.65
44144;BME280;68165;51.920;4.492;2023-04-02T09:28:01;66825.53;;;8.70;79.03
44144;BME280;68165;51.920;4.492;2023-04-02T09:30:59;66844.09;;;8.89;79.40
44144;BME280;68165;51.920;4.492;2023-04-02T09:33:49;66853.56;;;8.98;78.52
44144;BME280;68165;51.920;4.492;2023-04-02T09:36:18;66863.59;;;9.07;78.31
44144;BME280;68165;51.920;4.492;2023-04-02T09:41:28;66885.13;;;9.24;76.40
44144;BME280;68165;51.920;4.492;2023-04-02T09:44:20;66906.50;;;9.46;75.86
44144;BME280;68165;51.920;4.492;2023-04-02T09:46:58;66882.75;;;9.20;73.14
44144;BME280;68165;51.920;4.492;2023-04-02T09:49:33;66839.47;;;8.83;73.89
44144;BME280;68165;51.920;4.492;2023-04-02T09:55:26;66757.06;;;8.08;77.30
44144;BME280;68165;51.920;4.492;2023-04-02T09:58:14;66745.38;;;7.97;78.36
44144;BME280;68165;51.920;4.492;2023-04-02T10:00:49;66765.97;;;8.16;78.32
44144;BME280;68165;51.920;4.492;2023-04-02T10:03:26;66790.28;;;8.36;77.93
44144;BME280;68165;51.920;4.492;2023-04-02T10:06:10;66806.22;;;8.55;75.94
44144;BME280;68165;51.920;4.492;2023-04-02T10:08:38;66822.94;;;8.70;74.52
44144;BME280;68165;51.920;4.492;2023-04-02T10:11:11;66839.81;;;8.88;74.64
44144;BME280;68165;51.920;4.492;2023-04-02T10:16:43;66857.47;;;9.01;73.55
44144;BME280;68165;51.920;4.492;2023-04-02T10:21:47;66934.53;;;9.74;71.98
44144;BME280;68165;51.920;4.492;2023-04-02T10:24:17;66986.63;;;10.16;70.72
44144;BME280;68165;51.920;4.492;2023-04-02T10:27:06;67020.63;;;10.47;69.88
44144;BME280;68165;51.920;4.492;2023-04-02T10:32:29;67072.50;;;10.94;69.59
44144;BME280;68165;51.920;4.492;2023-04-02T10:59:54;67251.22;;;12.56;61.87
44144;BME280;68165;51.920;4.492;2023-04-02T11:04:53;67186.41;;;11.98;61.48
44144;BME280;68165;51.920;4.492;2023-04-02T11:07:23;67171.50;;;11.86;61.09
44144;BME280;68165;51.920;4.492;2023-04-02T11:09:52;67163.69;;;11.79;61.61
44144;BME280;68165;51.920;4.492;2023-04-02T11:12:24;67171.50;;;11.86;61.63
44144;BME280;68165;51.920;4.492;2023-04-02T11:14:53;67178.59;;;11.91;61.17
44144;BME280;68165;51.920;4.492;2023-04-02T11:17:20;67181.31;;;12.00;61.09
44144;BME280;68165;51.920;4.492;2023-04-02T11:19:46;67197.16;;;12.10;60.23
44144;BME280;68165;51.920;4.492;2023-04-02T11:24:48;67184.19;;;11.96;59.84
44144;BME280;68165;51.920;4.492;2023-04-02T11:27:33;67195.34;;;12.06;60.05
44144;BME280;68165;51.920;4.492;2023-04-02T11:30:04;67196.06;;;12.09;59.87
44144;BME280;68165;51.920;4.492;2023-04-02T11:32:40;67197.16;;;12.10;59.78
44144;BME280;68165;51.920;4.492;2023-04-02T11:35:35;67207.25;;;12.19;59.76
44144;BME280;68165;51.920;4.492;2023-04-02T11:40:46;67254.00;;;12.59;58.65
44144;BME280;68165;51.920;4.492;2023-04-02T11:45:58;67221.75;;;12.32;56.14
44144;BME280;68165;51.920;4.492;2023-04-02T11:48:31;67219.34;;;12.27;56.26
44144;BME280;68165;51.920;4.492;2023-04-02T11:53:45;67208.91;;;12.20;55.50
44144;BME280;68165;51.920;4.492;2023-04-02T11:56:18;67204.63;;;12.19;54.67
44144;BME280;68165;51.920;4.492;2023-04-02T12:07:07;67178.97;;;11.89;54.11
44144;BME280;68165;51.920;4.492;2023-04-02T12:09:49;67160.31;;;11.76;52.91
44144;BME280;68165;51.920;4.492;2023-04-02T12:12:35;67170.38;;;11.85;53.94
44144;BME280;68165;51.920;4.492;2023-04-02T12:15:04;67189.59;;;11.98;53.42
44144;BME280;68165;51.920;4.492;2023-04-02T12:17:35;67183.78;;;11.98;53.52
44144;BME280;68165;51.920;4.492;2023-04-02T12:22:38;67193.84;;;12.07;53.76
44144;BME280;68165;51.920;4.492;2023-04-02T12:27:46;67200.53;;;12.13;54.58
44144;BME280;68165;51.920;4.492;2023-04-02T12:30:22;67220.66;;;12.31;54.86
44144;BME280;68165;51.920;4.492;2023-04-02T12:32:48;67237.81;;;12.44;53.71
44144;BME280;68165;51.920;4.492;2023-04-02T12:35:41;67220.66;;;12.31;52.35
44144;BME280;68165;51.920;4.492;2023-04-02T12:38:24;67218.81;;;12.27;53.13
44144;BME280;68165;51.920;4.492;2023-04-02T12:41:00;67227.34;;;12.37;53.40
44144;BME280;68165;51.920;4.492;2023-04-02T12:43:32;67237.41;;;12.46;53.00
44144;BME280;68165;51.920;4.492;2023-04-02T12:45:59;67255.13;;;12.60;53.17
44144;BME280;68165;51.920;4.492;2023-04-02T12:48:26;67258.88;;;12.61;53.39
44144;BME280;68165;51.920;4.492;2023-04-02T12:50:52;67266.28;;;12.70;53.57
44144;BME280;68165;51.920;4.492;2023-04-02T12:53:31;67275.06;;;12.76;53.18
44144;BME280;68165;51.920;4.492;2023-04-02T12:55:57;67279.53;;;12.80;53.44
44144;BME280;68165;51.920;4.492;2023-04-02T12:58:27;67275.41;;;12.81;53.20
44144;BME280;68165;51.920;4.492;2023-04-02T13:01:15;67281.56;;;12.86;53.34
44144;BME280;68165;51.920;4.492;2023-04-02T13:04:03;67289.22;;;12.91;52.03
44144;BME280;68165;51.920;4.492;2023-04-02T13:06:30;67278.75;;;12.84;50.71
44144;BME280;68165;51.920;4.492;2023-04-02T13:08:56;67274.84;;;12.80;50.26
44144;BME280;68165;51.920;4.492;2023-04-02T13:11:24;67262.94;;;12.67;50.71
44144;BME280;68165;51.920;4.492;2023-04-02T13:14:00;67268.69;;;12.75;51.72
44144;BME280;68165;51.920;4.492;2023-04-02T13:16:32;67268.53;;;12.72;52.14
44144;BME280;68165;51.920;4.492;2023-04-02T13:19:21;67275.41;;;12.81;52.78
44144;BME280;68165;51.920;4.492;2023-04-02T13:21:48;67288.09;;;12.90;52.17
44144;BME280;68165;51.920;4.492;2023-04-02T13:24:21;67294.97;;;12.98;51.92
44144;BME280;68165;51.920;4.492;2023-04-02T13:26:47;67289.91;;;12.94;52.04
44144;BME280;68165;51.920;4.492;2023-04-02T13:29:31;67293.66;;;12.95;51.95
44144;BME280;68165;51.920;4.492;2023-04-02T13:32:02;67287.84;;;12.94;52.32
44144;BME280;68165;51.920;4.492;2023-04-02T13:34:29;67298.13;;;12.99;52.74
44144;BME280;68165;51.920;4.492;2023-04-02T13:36:55;67305.56;;;13.08;51.16
44144;BME280;68165;51.920;4.492;2023-04-02T13:39:22;67285.44;;;12.90;50.00
44144;BME280;68165;51.920;4.492;2023-04-02T13:41:51;67277.94;;;12.88;50.94
44144;BME280;68165;51.920;4.492;2023-04-02T13:44:22;67273.72;;;12.79;51.08
44144;BME280;68165;51.920;4.492;2023-04-02T13:46:49;67269.25;;;12.75;51.40
44144;BME280;68165;51.920;4.492;2023-04-02T13:49:16;67268.69;;;12.75;51.43
44144;BME280;68165;51.920;4.492;2023-04-02T13:54:18;67247.47;;;12.55;51.50
44144;BME280;68165;51.920;4.492;2023-04-02T13:56:44;67261.66;;;12.63;52.17
44144;BME280;68165;51.920;4.492;2023-04-02T13:59:11;67265.72;;;12.69;52.81
44144;BME280;68165;51.920;4.492;2023-04-02T14:01:37;67256.94;;;12.64;53.78
44144;BME280;68165;51.920;4.492;2023-04-02T14:04:03;67265.72;;;12.69;53.79
44144;BME280;68165;51.920;4.492;2023-04-02T14:10:03;67275.00;;;12.83;52.42
44144;BME280;68165;51.920;4.492;2023-04-02T14:12:34;67274.28;;;12.80;51.82
44144;BME280;68165;51.920;4.492;2023-04-02T14:15:33;67268.53;;;12.72;50.42
44144;BME280;68165;51.920;4.492;2023-04-02T14:29:21;67262.94;;;12.67;49.06
44144;BME280;68165;51.920;4.492;2023-04-02T14:31:50;67247.84;;;12.53;49.55
44144;BME280;68165;51.920;4.492;2023-04-02T14:37:19;67239.63;;;12.48;49.76
44144;BME280;68165;51.920;4.492;2023-04-02T14:42:27;67246.91;;;12.55;49.99
44144;BME280;68165;51.920;4.492;2023-04-02T14:48:19;67241.00;;;12.45;49.46
44144;BME280;68165;51.920;4.492;2023-04-02T14:51:09;67234.44;;;12.41;49.72
44144;BME280;68165;51.920;4.492;2023-04-02T14:53:50;67222.88;;;12.33;50.28
44144;BME280;68165;51.920;4.492;2023-04-02T14:56:18;67232.75;;;12.40;49.44
44144;BME280;68165;51.920;4.492;2023-04-02T14:58:51;67223.28;;;12.31;49.15
44144;BME280;68165;51.920;4.492;2023-04-02T15:01:22;67227.91;;;12.38;49.68
44144;BME280;68165;51.920;4.492;2023-04-02T15:03:57;67220.31;;;12.26;49.25
44144;BME280;68165;51.920;4.492;2023-04-02T15:06:30;67218.41;;;12.29;49.52
44144;BME280;68165;51.920;4.492;2023-04-02T15:09:11;67222.72;;;12.31;50.07
44144;BME280;68165;51.920;4.492;2023-04-02T15:11:50;67229.41;;;12.37;50.24
44144;BME280;68165;51.920;4.492;2023-04-02T15:14:22;67217.84;;;12.28;49.39
44144;BME280;68165;51.920;4.492;2023-04-02T15:16:49;67221.03;;;12.29;49.51
44144;BME280;68165;51.920;4.492;2023-04-02T15:19:16;67227.34;;;12.37;49.24
44144;BME280;68165;51.920;4.492;2023-04-02T15:22:17;67230.69;;;12.40;49.45
44144;BME280;68165;51.920;4.492;2023-04-02T15:25:01;67231.47;;;12.36;49.76
44144;BME280;68165;51.920;4.492;2023-04-02T15:30:24;67237.41;;;12.46;49.84
44144;BME280;68165;51.920;4.492;2023-04-02T15:32:56;67230.69;;;12.40;49.99
44144;BME280;68165;51.920;4.492;2023-04-02T15:35:32;67230.69;;;12.40;49.55
44144;BME280;68165;51.920;4.492;2023-04-02T15:43:43;67224.53;;;12.35;49.29
44144;BME280;68165;51.920;4.492;2023-04-02T15:49:53;67217.84;;;12.28;48.71
44144;BME280;68165;51.920;4.492;2023-04-02T15:55:42;67223.97;;;12.34;48.71
44144;BME280;68165;51.920;4.492;2023-04-02T15:58:30;67226.78;;;12.37;49.06
44144;BME280;68165;51.920;4.492;2023-04-02T16:04:17;67215.38;;;12.31;51.01
44144;BME280;68165;51.920;4.492;2023-04-02T16:12:38;67215.06;;;12.26;51.70
44144;BME280;68165;51.920;4.492;2023-04-02T16:15:28;67219.53;;;12.30;49.93
44144;BME280;68165;51.920;4.492;2023-04-02T16:18:00;67213.22;;;12.22;49.20
44144;BME280;68165;51.920;4.492;2023-04-02T16:20:38;67206.34;;;12.13;48.73
44144;BME280;68165;51.920;4.492;2023-04-02T16:23:12;67196.47;;;12.07;49.68
44144;BME280;68165;51.920;4.492;2023-04-02T16:31:21;67193.84;;;12.07;50.55
44144;BME280;68165;51.920;4.492;2023-04-02T16:34:09;67191.59;;;12.05;49.34
44144;BME280;68165;51.920;4.492;2023-04-02T16:36:52;67191.59;;;12.05;49.41
44144;BME280;68165;51.920;4.492;2023-04-02T16:39:40;67186.41;;;11.98;49.62
44144;BME280;68165;51.920;4.492;2023-04-02T16:45:02;67197.56;;;12.08;50.35
44144;BME280;68165;51.920;4.492;2023-04-02T16:51:08;67189.75;;;12.01;50.07
44144;BME280;68165;51.920;4.492;2023-04-02T16:59:18;67178.03;;;11.90;50.01
44144;BME280;68165;51.920;4.492;2023-04-02T17:02:03;67178.59;;;11.91;50.14
44144;BME280;68165;51.920;4.492;2023-04-02T17:04:46;67175.97;;;11.91;50.14
44144;BME280;68165;51.920;4.492;2023-04-02T17:07:25;67174.84;;;11.90;50.59
44144;BME280;68165;51.920;4.492;2023-04-02T17:09:58;67175.63;;;11.85;51.33
44144;BME280;68165;51.920;4.492;2023-04-02T17:12:42;67168.88;;;11.86;51.80
44144;BME280;68165;51.920;4.492;2023-04-02T17:17:43;67165.34;;;11.81;52.51
44144;BME280;68165;51.920;4.492;2023-04-02T17:20:21;67169.47;;;11.80;52.12
44144;BME280;68165;51.920;4.492;2023-04-02T17:22:48;67165.19;;;11.78;51.50
44144;BME280;68165;51.920;4.492;2023-04-02T17:25:36;67163.28;;;11.81;51.46
44144;BME280;68165;51.920;4.492;2023-04-02T17:28:08;67163.28;;;11.81;51.18
44144;BME280;68165;51.920;4.492;2023-04-02T17:30:49;67164.63;;;11.78;51.30
44144;BME280;68165;51.920;4.492;2023-04-02T17:33:17;67162.56;;;11.78;51.44
44144;BME280;68165;51.920;4.492;2023-04-02T17:38:45;67155.66;;;11.70;51.65
44144;BME280;68165;51.920;4.492;2023-04-02T17:41:22;67148.03;;;11.65;52.10
44144;BME280;68165;51.920;4.492;2023-04-02T17:44:16;67149.16;;;11.66;52.14
44144;BME280;68165;51.920;4.492;2023-04-02T17:47:04;67143.56;;;11.61;52.66
44144;BME280;68165;51.920;4.492;2023-04-02T17:49:44;67141.72;;;11.57;52.34
44144;BME280;68165;51.920;4.492;2023-04-02T17:57:26;67136.88;;;11.55;52.81
44144;BME280;68165;51.920;4.492;2023-04-02T18:05:44;67130.94;;;11.45;53.59
44144;BME280;68165;51.920;4.492;2023-04-02T18:08:40;67124.56;;;11.44;53.73
44144;BME280;68165;51.920;4.492;2023-04-02T18:11:17;67119.00;;;11.39;53.94
44144;BME280;68165;51.920;4.492;2023-04-02T18:13:54;67117.72;;;11.35;54.40
44144;BME280;68165;51.920;4.492;2023-04-02T18:16:37;67112.28;;;11.33;54.71
44144;BME280;68165;51.920;4.492;2023-04-02T18:19:10;67113.41;;;11.34;54.70
44144;BME280;68165;51.920;4.492;2023-04-02T18:22:25;67114.75;;;11.30;55.32
44144;BME280;68165;51.920;4.492;2023-04-02T18:24:42;67107.66;;;11.26;55.32
44144;BME280;68165;51.920;4.492;2023-04-02T18:30:25;67099.69;;;11.17;56.25
44144;BME280;68165;51.920;4.492;2023-04-02T18:46:18;67077.72;;;11.01;56.93
44144;BME280;68165;51.920;4.492;2023-04-02T18:48:54;67066.38;;;10.89;56.47
44144;BME280;68165;51.920;4.492;2023-04-02T18:51:23;67075.13;;;10.94;56.92